createdAt,value
2023-06-20T00:00:58.795Z,98709.09
2023-06-20T00:03:44.326Z,98710.50
2023-06-20T00:06:11.458Z,98708.84
2023-06-20T00:08:38.295Z,98701.41
2023-06-20T00:11:05.461Z,98694.38
2023-06-20T00:13:32.319Z,98712.19
2023-06-20T00:15:59.383Z,98706.69
2023-06-20T00:18:26.395Z,98703.69
2023-06-20T00:20:55.156Z,98702.41
2023-06-20T00:23:22.746Z,98706.00
2023-06-20T00:25:49.989Z,98693.22
2023-06-20T00:28:19.798Z,98691.50
2023-06-20T00:30:46.927Z,98690.19
2023-06-20T00:33:14.012Z,98692.03
2023-06-20T00:35:41.146Z,98690.09
2023-06-20T00:38:07.938Z,98684.00
2023-06-20T00:40:35.110Z,98681.69
2023-06-20T00:43:01.952Z,98689.13
2023-06-20T00:45:36.433Z,98698.25
2023-06-20T00:48:07.332Z,98699.69
2023-06-20T00:50:35.816Z,98704.66
2023-06-20T00:53:07.026Z,98701.22
2023-06-20T00:55:35.317Z,98693.53
2023-06-20T00:58:03.320Z,98702.00
2023-06-20T01:00:33.843Z,98705.63
2023-06-20T01:03:03.254Z,98700.53
2023-06-20T01:05:30.573Z,98702.59
2023-06-20T01:08:22.514Z,98708.50
2023-06-20T01:11:08.472Z,98706.19
2023-06-20T01:13:38.518Z,98700.25
2023-06-20T01:16:18.360Z,98700.44
2023-06-20T01:18:48.056Z,98702.13
2023-06-20T01:21:18.656Z,98704.81
2023-06-20T01:24:05.133Z,98698.25
2023-06-20T01:26:38.988Z,98695.25
2023-06-20T01:29:21.658Z,98688.91
2023-06-20T01:31:54.558Z,98698.63
2023-06-20T01:34:24.131Z,98704.19
2023-06-20T01:36:54.945Z,98692.50
2023-06-20T01:39:37.311Z,98687.59
2023-06-20T01:42:04.736Z,98692.91
2023-06-20T01:44:32.416Z,98689.63
2023-06-20T01:46:59.749Z,98684.66
2023-06-20T01:49:26.917Z,98679.84
2023-06-20T01:51:57.061Z,98682.16
2023-06-20T01:54:29.031Z,98679.31
2023-06-20T01:56:58.744Z,98683.38
2023-06-20T01:59:26.798Z,98684.41
2023-06-20T02:01:53.991Z,98675.19
2023-06-20T02:04:20.794Z,98678.41
2023-06-20T02:06:48.094Z,98678.84
2023-06-20T02:09:14.994Z,98677.19
2023-06-20T02:11:42.061Z,98672.72
2023-06-20T02:14:08.834Z,98671.81
2023-06-20T02:16:36.268Z,98675.00
2023-06-20T02:19:07.428Z,98681.03
2023-06-20T02:21:38.505Z,98685.16
2023-06-20T02:24:08.354Z,98686.50
2023-06-20T02:26:37.247Z,98684.16
2023-06-20T02:29:06.385Z,98684.03
2023-06-20T02:31:37.744Z,98683.84
2023-06-20T02:34:06.116Z,98680.81
2023-06-20T02:36:33.253Z,98690.25
2023-06-20T02:39:00.031Z,98684.66
2023-06-20T02:41:27.085Z,98687.78
2023-06-20T02:43:53.848Z,98685.03
2023-06-20T02:46:34.789Z,98684.56
2023-06-20T02:49:01.735Z,98689.47
2023-06-20T02:51:34.319Z,98693.25
2023-06-20T02:54:17.359Z,98689.88
2023-06-20T02:56:44.569Z,98691.94
2023-06-20T02:59:11.430Z,98698.41
2023-06-20T03:01:38.548Z,98689.63
2023-06-20T03:04:05.680Z,98695.41
2023-06-20T03:06:33.670Z,98696.63
2023-06-20T03:09:04.196Z,98687.81
2023-06-20T03:11:31.373Z,98681.88
2023-06-20T03:13:58.149Z,98688.38
2023-06-20T03:16:27.840Z,98694.94
2023-06-20T03:18:55.356Z,98686.81
2023-06-20T03:21:29.366Z,98682.63
2023-06-20T03:23:56.837Z,98690.50
2023-06-20T03:26:24.001Z,98688.88
2023-06-20T03:28:50.762Z,98695.41
2023-06-20T03:31:18.106Z,98696.19
2023-06-20T03:33:44.893Z,98696.09
2023-06-20T03:36:12.115Z,98700.53
2023-06-20T03:38:40.949Z,98700.25
2023-06-20T03:41:08.024Z,98704.69
2023-06-20T03:43:34.970Z,98704.13
2023-06-20T03:46:02.066Z,98707.34
2023-06-20T03:48:28.836Z,98707.25
2023-06-20T03:50:55.883Z,98701.56
2023-06-20T03:53:22.666Z,98706.13
2023-06-20T03:55:49.868Z,98715.66
2023-06-20T03:58:16.708Z,98711.88
2023-06-20T04:00:43.842Z,98711.69
2023-06-20T04:03:10.747Z,98699.47
2023-06-20T04:05:38.825Z,98696.75
2023-06-20T04:08:05.615Z,98708.47
2023-06-20T04:10:32.689Z,98701.00
2023-06-20T04:12:59.538Z,98704.94
2023-06-20T04:15:26.814Z,98700.88
2023-06-20T04:17:53.889Z,98700.97
2023-06-20T04:20:21.179Z,98696.31
2023-06-20T04:22:47.985Z,98710.22
2023-06-20T04:25:15.417Z,98705.31
2023-06-20T04:27:42.532Z,98710.97
2023-06-20T04:30:09.877Z,98705.13
2023-06-20T04:32:38.150Z,98715.53
2023-06-20T04:35:05.782Z,98709.00
2023-06-20T04:37:32.571Z,98708.22
2023-06-20T04:39:59.690Z,98717.13
2023-06-20T04:42:26.511Z,98710.19
2023-06-20T04:44:53.662Z,98717.09
2023-06-20T04:47:20.535Z,98722.19
2023-06-20T04:49:47.685Z,98715.47
2023-06-20T04:52:14.493Z,98720.59
2023-06-20T04:54:41.618Z,98718.28
2023-06-20T04:57:08.441Z,98717.50
2023-06-20T04:59:39.490Z,98718.81
2023-06-20T05:02:07.193Z,98714.81
2023-06-20T05:04:34.479Z,98717.84
2023-06-20T05:07:03.368Z,98718.75
2023-06-20T05:09:30.483Z,98716.91
2023-06-20T05:12:00.421Z,98716.72
2023-06-20T05:14:31.523Z,98722.28
2023-06-20T05:16:58.351Z,98721.50
2023-06-20T05:19:25.473Z,98721.94
2023-06-20T05:21:52.291Z,98710.19
2023-06-20T05:24:19.436Z,98723.31
2023-06-20T05:26:46.264Z,98719.97
2023-06-20T05:29:13.421Z,98717.28
2023-06-20T05:31:41.356Z,98720.09
2023-06-20T05:34:08.918Z,98711.25
2023-06-20T05:36:35.681Z,98724.84
2023-06-20T05:39:02.975Z,98715.13
2023-06-20T05:41:29.763Z,98721.72
2023-06-20T05:43:56.884Z,98729.78
2023-06-20T05:46:23.724Z,98726.66
2023-06-20T05:48:50.812Z,98729.88
2023-06-20T05:51:17.636Z,98735.66
2023-06-20T05:53:44.943Z,98729.53
2023-06-20T05:56:12.052Z,98727.91
2023-06-20T05:58:39.187Z,98736.19
2023-06-20T06:01:05.945Z,98731.75
2023-06-20T06:03:36.295Z,98735.38
2023-06-20T06:06:04.790Z,98740.09
2023-06-20T06:08:34.894Z,98743.91
2023-06-20T06:11:01.767Z,98748.63
2023-06-20T06:13:29.295Z,98744.16
2023-06-20T06:16:00.736Z,98745.94
2023-06-20T06:18:28.610Z,98744.25
2023-06-20T06:20:55.438Z,98745.16
2023-06-20T06:23:22.524Z,98748.34
2023-06-20T06:25:49.350Z,98742.63
2023-06-20T06:28:16.630Z,98744.94
2023-06-20T06:30:43.435Z,98741.16
2023-06-20T06:33:11.146Z,98747.09
2023-06-20T06:35:38.014Z,98742.03
2023-06-20T06:38:05.274Z,98747.13
2023-06-20T06:40:32.651Z,98752.22
2023-06-20T06:43:00.225Z,98751.78
2023-06-20T06:45:27.389Z,98754.34
2023-06-20T06:47:56.055Z,98749.84
2023-06-20T06:50:22.947Z,98755.97
2023-06-20T06:52:50.172Z,98763.63
2023-06-20T06:55:17.105Z,98759.81
2023-06-20T06:57:44.196Z,98763.78
2023-06-20T07:00:12.507Z,98757.81
2023-06-20T07:02:42.505Z,98754.59
2023-06-20T07:05:10.462Z,98758.38
2023-06-20T07:07:37.605Z,98761.31
2023-06-20T07:10:04.914Z,98760.47
2023-06-20T07:12:32.309Z,98760.44
2023-06-20T07:14:59.161Z,98762.06
2023-06-20T07:17:26.999Z,98761.16
2023-06-20T07:19:54.097Z,98760.69
2023-06-20T07:22:21.248Z,98764.06
2023-06-20T07:24:51.934Z,98761.25
2023-06-20T07:27:20.475Z,98765.91
2023-06-20T07:29:47.286Z,98764.97
2023-06-20T07:32:15.774Z,98766.63
2023-06-20T07:34:42.834Z,98771.03
2023-06-20T07:37:10.045Z,98769.06
2023-06-20T07:39:41.314Z,98767.22
2023-06-20T07:42:08.951Z,98764.78
2023-06-20T07:44:35.720Z,98762.44
2023-06-20T07:47:02.904Z,98763.63
2023-06-20T07:49:29.741Z,98757.97
2023-06-20T07:51:57.000Z,98763.56
2023-06-20T07:54:23.926Z,98762.66
2023-06-20T07:56:51.103Z,98763.66
2023-06-20T07:59:17.971Z,98763.94
2023-06-20T08:01:45.286Z,98771.34
2023-06-20T08:04:12.169Z,98765.91
2023-06-20T08:06:39.391Z,98761.66
2023-06-20T08:09:06.599Z,98759.03
2023-06-20T08:11:35.684Z,98761.22
2023-06-20T08:14:02.732Z,98761.50
2023-06-20T08:16:30.030Z,98759.47
2023-06-20T08:18:56.940Z,98768.47
2023-06-20T08:21:24.040Z,98763.66
2023-06-20T08:23:50.887Z,98766.63
2023-06-20T08:26:18.071Z,98763.72
2023-06-20T08:28:44.912Z,98758.31
2023-06-20T08:31:12.131Z,98764.97
2023-06-20T08:33:39.031Z,98760.13
2023-06-20T08:36:06.250Z,98764.75
2023-06-20T08:38:33.290Z,98764.13
2023-06-20T08:41:00.437Z,98756.63
2023-06-20T08:43:30.643Z,98757.72
2023-06-20T08:45:58.065Z,98762.53
2023-06-20T08:48:24.983Z,98760.75
2023-06-20T08:50:52.411Z,98753.97
2023-06-20T08:53:22.682Z,98756.13
2023-06-20T08:55:51.361Z,98754.03
2023-06-20T08:58:18.123Z,98747.50
2023-06-20T09:00:47.173Z,98749.41
2023-06-20T09:03:14.365Z,98750.22
2023-06-20T09:05:46.972Z,98752.78
2023-06-20T09:08:15.035Z,98750.44
2023-06-20T09:10:43.045Z,98743.63
2023-06-20T09:13:11.773Z,98748.22
2023-06-20T09:15:39.478Z,98747.03
2023-06-20T09:18:09.096Z,98750.00
2023-06-20T09:20:36.562Z,98749.50
2023-06-20T09:23:03.543Z,98752.66
2023-06-20T09:25:31.789Z,98750.31
2023-06-20T09:27:59.120Z,98759.41
2023-06-20T09:30:31.576Z,98748.38
2023-06-20T09:33:03.139Z,98750.72
2023-06-20T09:35:31.122Z,98750.31
2023-06-20T09:37:57.919Z,98743.72
2023-06-20T09:40:25.404Z,98746.69
2023-06-20T09:42:56.983Z,98744.81
2023-06-20T09:45:24.173Z,98738.56
2023-06-20T09:47:51.165Z,98743.69
2023-06-20T09:50:20.075Z,98741.88
2023-06-20T09:52:47.970Z,98750.91
2023-06-20T09:55:16.076Z,98745.16
2023-06-20T09:57:45.066Z,98745.56
2023-06-20T10:00:16.255Z,98748.72
2023-06-20T10:02:45.997Z,98747.75
2023-06-20T10:05:17.391Z,98750.34
2023-06-20T10:07:45.485Z,98751.28
2023-06-20T10:10:13.573Z,98744.91
2023-06-20T10:12:41.127Z,98745.88
2023-06-20T10:15:09.135Z,98745.69
2023-06-20T10:17:40.524Z,98740.75
2023-06-20T10:20:09.120Z,98736.88
2023-06-20T10:22:45.188Z,98731.38
2023-06-20T10:25:16.267Z,98736.75
2023-06-20T10:27:55.735Z,98734.88
2023-06-20T10:30:47.742Z,98740.00
2023-06-20T10:33:17.645Z,98727.72
2023-06-20T10:35:49.517Z,98730.84
2023-06-20T10:38:16.380Z,98732.28
2023-06-20T10:40:44.244Z,98725.94
2023-06-20T10:43:18.418Z,98723.75
2023-06-20T10:45:58.384Z,98731.66
2023-06-20T10:48:25.601Z,98732.53
2023-06-20T10:50:55.584Z,98734.22
2023-06-20T10:53:22.411Z,98727.00
2023-06-20T10:55:49.802Z,98727.03
2023-06-20T10:58:31.334Z,98721.47
2023-06-20T11:00:59.506Z,98715.63
2023-06-20T11:03:26.537Z,98716.75
2023-06-20T11:05:55.342Z,98716.78
2023-06-20T11:08:23.380Z,98711.53
2023-06-20T11:10:50.459Z,98702.88
2023-06-20T11:13:17.261Z,98701.78
2023-06-20T11:15:44.402Z,98707.13
2023-06-20T11:18:11.415Z,98710.22
2023-06-20T11:20:43.070Z,98704.06
2023-06-20T11:23:14.151Z,98694.59
2023-06-20T11:25:45.698Z,98706.34
2023-06-20T11:28:13.922Z,98703.84
2023-06-20T11:30:45.782Z,98693.25
2023-06-20T11:33:16.845Z,98691.56
2023-06-20T11:35:56.133Z,98686.81
2023-06-20T11:38:28.313Z,98687.38
2023-06-20T11:41:04.840Z,98698.03
2023-06-20T11:43:36.897Z,98694.69
2023-06-20T11:46:04.147Z,98687.41
2023-06-20T11:48:31.253Z,98677.03
2023-06-20T11:50:58.418Z,98683.22
2023-06-20T11:53:36.366Z,98682.66
2023-06-20T11:56:13.282Z,98666.38
2023-06-20T11:58:44.797Z,98673.09
2023-06-20T12:01:18.918Z,98678.09
2023-06-20T12:03:46.393Z,98682.06
2023-06-20T12:06:36.375Z,98680.06
2023-06-20T12:09:09.718Z,98680.63
2023-06-20T12:11:46.482Z,98675.56
2023-06-20T12:14:13.648Z,98676.13
2023-06-20T12:16:40.715Z,98675.00
2023-06-20T12:19:07.511Z,98671.63
2023-06-20T12:21:34.649Z,98669.09
2023-06-20T12:24:01.500Z,98674.13
2023-06-20T12:26:28.749Z,98678.88
2023-06-20T12:28:55.654Z,98671.00
2023-06-20T12:31:22.769Z,98669.91
2023-06-20T12:33:49.620Z,98671.00
2023-06-20T12:36:17.207Z,98660.63
2023-06-20T12:38:44.324Z,98663.41
2023-06-20T12:41:11.778Z,98661.16
2023-06-20T12:43:38.923Z,98656.09
2023-06-20T12:46:06.161Z,98655.53
2023-06-20T12:48:33.047Z,98655.78
2023-06-20T12:51:00.153Z,98648.19
2023-06-20T12:53:28.098Z,98652.41
2023-06-20T12:55:59.087Z,98655.75
2023-06-20T12:58:26.113Z,98650.41
2023-06-20T13:00:53.356Z,98653.75
2023-06-20T13:03:20.204Z,98653.16
2023-06-20T13:05:47.728Z,98655.09
2023-06-20T13:08:14.614Z,98653.97
2023-06-20T13:10:42.768Z,98652.81
2023-06-20T13:13:09.560Z,98655.03
2023-06-20T13:15:36.739Z,98651.13
2023-06-20T13:18:05.812Z,98661.78
2023-06-20T13:20:35.743Z,98651.91
2023-06-20T13:23:03.411Z,98647.69
2023-06-20T13:25:31.566Z,98644.63
2023-06-20T13:27:58.343Z,98650.50
2023-06-20T13:30:26.289Z,98645.44
2023-06-20T13:32:53.491Z,98647.69
2023-06-20T13:35:23.000Z,98642.63
2023-06-20T13:37:50.980Z,98643.19
2023-06-20T13:40:18.317Z,98647.41
2023-06-20T13:42:47.033Z,98645.13
2023-06-20T13:45:15.280Z,98638.13
2023-06-20T13:47:42.458Z,98642.59
2023-06-20T13:50:10.499Z,98639.78
2023-06-20T13:52:37.775Z,98637.84
2023-06-20T13:55:06.263Z,98640.31
2023-06-20T13:57:33.464Z,98640.03
2023-06-20T14:00:01.284Z,98638.38
2023-06-20T14:02:28.575Z,98633.81
2023-06-20T14:04:55.792Z,98633.53
2023-06-20T14:07:24.031Z,98638.03
2023-06-20T14:09:51.262Z,98640.31
2023-06-20T14:12:18.230Z,98636.97
2023-06-20T14:14:45.337Z,98641.72
2023-06-20T14:17:12.145Z,98634.75
2023-06-20T14:19:39.339Z,98634.69
2023-06-20T14:22:06.307Z,98628.56
2023-06-20T14:24:34.309Z,98628.00
2023-06-20T14:27:01.173Z,98621.88
2023-06-20T14:29:28.338Z,98634.44
2023-06-20T14:31:55.303Z,98620.75
2023-06-20T14:34:22.511Z,98625.78
2023-06-20T14:36:49.339Z,98624.38
2023-06-20T14:39:16.503Z,98626.63
2023-06-20T14:41:43.429Z,98627.47
2023-06-20T14:44:10.581Z,98619.91
2023-06-20T14:46:37.688Z,98625.53
2023-06-20T14:49:04.783Z,98619.66
2023-06-20T14:51:31.591Z,98619.66
2023-06-20T14:53:58.853Z,98623.84
2023-06-20T14:56:25.841Z,98614.59
2023-06-20T14:58:52.967Z,98612.91
2023-06-20T15:01:19.800Z,98607.91
2023-06-20T15:03:47.031Z,98614.91
2023-06-20T15:06:13.986Z,98610.19
2023-06-20T15:08:41.102Z,98607.19
2023-06-20T15:11:07.881Z,98609.38
2023-06-20T15:13:35.006Z,98610.72
2023-06-20T15:16:01.844Z,98610.72
2023-06-20T15:18:29.032Z,98605.13
2023-06-20T15:20:56.032Z,98614.41
2023-06-20T15:23:23.161Z,98614.69
2023-06-20T15:25:50.069Z,98608.81
2023-06-20T15:28:18.343Z,98604.00
2023-06-20T15:30:45.216Z,98607.38
2023-06-20T15:33:12.365Z,98599.56
2023-06-20T15:35:42.870Z,98605.44
2023-06-20T15:38:09.971Z,98609.66
2023-06-20T15:40:36.751Z,98604.34
2023-06-20T15:43:03.931Z,98608.88
2023-06-20T15:45:33.338Z,98596.28
2023-06-20T15:48:01.504Z,98595.75
2023-06-20T15:50:28.624Z,98596.00
2023-06-20T15:52:56.018Z,98585.88
2023-06-20T15:55:22.913Z,98590.13
2023-06-20T15:57:50.069Z,98590.44
2023-06-20T16:00:17.358Z,98587.41
2023-06-20T16:02:44.584Z,98580.38
2023-06-20T16:05:11.473Z,98582.91
2023-06-20T16:07:38.709Z,98583.72
2023-06-20T16:10:06.062Z,98585.16
2023-06-20T16:12:33.418Z,98585.75
2023-06-20T16:15:00.730Z,98579.31
2023-06-20T16:17:27.943Z,98582.41
2023-06-20T16:19:54.899Z,98588.56
2023-06-20T16:22:22.105Z,98588.88
2023-06-20T16:24:49.042Z,98583.00
2023-06-20T16:27:16.183Z,98585.53
2023-06-20T16:29:43.036Z,98584.13
2023-06-20T16:32:10.162Z,98582.78
2023-06-20T16:34:37.034Z,98580.25
2023-06-20T16:37:04.429Z,98580.25
2023-06-20T16:39:31.406Z,98574.66
2023-06-20T16:41:58.510Z,98577.19
2023-06-20T16:44:25.338Z,98580.00
2023-06-20T16:46:52.531Z,98582.50
2023-06-20T16:49:19.379Z,98580.31
2023-06-20T16:51:46.507Z,98580.03
2023-06-20T16:54:13.374Z,98583.09
2023-06-20T16:56:40.569Z,98583.69
2023-06-20T16:59:07.446Z,98575.56
2023-06-20T17:01:37.755Z,98583.41
2023-06-20T17:04:06.116Z,98582.03
2023-06-20T17:06:33.496Z,98578.69
2023-06-20T17:09:00.446Z,98580.34
2023-06-20T17:11:27.678Z,98582.63
2023-06-20T17:13:54.545Z,98582.06
2023-06-20T17:16:22.076Z,98580.13
2023-06-20T17:18:49.180Z,98568.66
2023-06-20T17:21:16.328Z,98582.38
2023-06-20T17:23:43.121Z,98572.56
2023-06-20T17:26:11.418Z,98580.72
2023-06-20T17:28:39.715Z,98574.84
2023-06-20T17:31:06.940Z,98578.50
2023-06-20T17:33:33.966Z,98577.09
2023-06-20T17:36:01.121Z,98574.00
2023-06-20T17:38:27.999Z,98572.63
2023-06-20T17:40:55.117Z,98578.78
2023-06-20T17:43:22.831Z,98570.66
2023-06-20T17:45:50.370Z,98577.69
2023-06-20T17:48:17.236Z,98581.03
2023-06-20T17:50:44.361Z,98579.91
2023-06-20T17:53:11.146Z,98574.31
2023-06-20T17:55:38.417Z,98575.16
2023-06-20T17:58:05.302Z,98576.28
2023-06-20T18:00:32.606Z,98574.03
2023-06-20T18:03:00.456Z,98577.66
2023-06-20T18:05:27.807Z,98575.97
2023-06-20T18:07:54.634Z,98574.56
2023-06-20T18:10:24.374Z,98573.44
2023-06-20T18:12:52.277Z,98571.22
2023-06-20T18:15:20.932Z,98567.56
2023-06-20T18:17:48.059Z,98569.81
2023-06-20T18:20:16.416Z,98570.09
2023-06-20T18:22:44.137Z,98570.06
2023-06-20T18:25:11.609Z,98569.78
2023-06-20T18:27:39.655Z,98570.59
2023-06-20T18:30:08.979Z,98575.34
2023-06-20T18:32:35.930Z,98571.66
2023-06-20T18:35:03.906Z,98571.66
2023-06-20T18:37:30.789Z,98564.09
2023-06-20T18:39:57.902Z,98573.34
2023-06-20T18:42:24.795Z,98575.25
2023-06-20T18:44:52.115Z,98580.28
2023-06-20T18:47:18.934Z,98575.50
2023-06-20T18:49:46.086Z,98584.41
2023-06-20T18:52:12.906Z,98582.97
2023-06-20T18:54:39.992Z,98581.81
2023-06-20T18:57:08.447Z,98592.13
2023-06-20T18:59:35.801Z,98596.25
2023-06-20T19:02:02.664Z,98601.81
2023-06-20T19:04:29.955Z,98600.97
2023-06-20T19:06:57.560Z,98608.13
2023-06-20T19:09:30.840Z,98605.03
2023-06-20T19:11:59.283Z,98609.78
2023-06-20T19:14:26.428Z,98609.75
2023-06-20T19:16:53.369Z,98615.59
2023-06-20T19:19:20.648Z,98618.88
2023-06-20T19:21:47.538Z,98621.06
2023-06-20T19:24:15.045Z,98632.19
2023-06-20T19:26:43.931Z,98634.69
2023-06-20T19:29:13.187Z,98632.69
2023-06-20T19:31:45.221Z,98635.38
2023-06-20T19:34:12.445Z,98635.31
2023-06-20T19:36:39.595Z,98631.34
2023-06-20T19:39:06.852Z,98634.91
2023-06-20T19:41:33.768Z,98641.56
2023-06-20T19:44:00.919Z,98637.03
2023-06-20T19:46:27.795Z,98629.47
2023-06-20T19:48:55.071Z,98634.72
2023-06-20T19:51:21.920Z,98636.63
2023-06-20T19:53:49.103Z,98635.72
2023-06-20T19:56:15.932Z,98635.09
2023-06-20T19:58:44.300Z,98628.84
2023-06-20T20:01:11.282Z,98635.78
2023-06-20T20:03:38.530Z,98632.63
2023-06-20T20:06:05.436Z,98633.41
2023-06-20T20:08:32.696Z,98636.13
2023-06-20T20:10:59.769Z,98631.59
2023-06-20T20:13:26.895Z,98634.31
2023-06-20T20:15:53.742Z,98626.44
2023-06-20T20:18:20.900Z,98623.84
2023-06-20T20:20:47.711Z,98625.66
2023-06-20T20:23:14.822Z,98620.78
2023-06-20T20:25:41.705Z,98623.00
2023-06-20T20:28:09.838Z,98625.44
2023-06-20T20:30:36.654Z,98624.47
2023-06-20T20:33:03.874Z,98620.25
2023-06-20T20:35:30.696Z,98620.44
2023-06-20T20:37:57.807Z,98634.28
2023-06-20T20:40:26.357Z,98631.66
2023-06-20T20:42:53.868Z,98629.28
2023-06-20T20:45:20.739Z,98626.41
2023-06-20T20:47:48.189Z,98628.78
2023-06-20T20:50:15.224Z,98631.22
2023-06-20T20:52:42.317Z,98630.28
2023-06-20T20:55:12.152Z,98626.59
2023-06-20T20:57:39.908Z,98623.97
2023-06-20T21:00:11.336Z,98629.19
2023-06-20T21:02:38.688Z,98620.28
2023-06-20T21:05:05.590Z,98626.72
2023-06-20T21:07:32.727Z,98622.72
2023-06-20T21:09:59.542Z,98619.38
2023-06-20T21:12:26.738Z,98608.41
2023-06-20T21:14:53.622Z,98615.81
2023-06-20T21:17:20.762Z,98616.31
2023-06-20T21:19:47.671Z,98620.47
2023-06-20T21:22:14.816Z,98624.22
2023-06-20T21:24:41.813Z,98624.84
2023-06-20T21:27:08.999Z,98619.44
2023-06-20T21:29:35.800Z,98624.91
2023-06-20T21:32:03.036Z,98625.00
2023-06-20T21:34:29.847Z,98624.66
2023-06-20T21:36:56.953Z,98622.88
2023-06-20T21:39:23.794Z,98621.31
2023-06-20T21:41:50.935Z,98626.25
2023-06-20T21:44:17.727Z,98626.53
2023-06-20T21:46:45.000Z,98633.53
2023-06-20T21:49:11.781Z,98642.50
2023-06-20T21:51:38.878Z,98639.84
2023-06-20T21:54:05.861Z,98638.75
2023-06-20T21:56:32.986Z,98638.00
2023-06-20T21:58:59.808Z,98634.63
2023-06-20T22:01:26.908Z,98637.19
2023-06-20T22:03:53.765Z,98645.97
2023-06-20T22:06:21.025Z,98648.03
2023-06-20T22:08:47.918Z,98648.28
2023-06-20T22:11:15.017Z,98647.69
2023-06-20T22:13:41.833Z,98657.06
2023-06-20T22:16:08.944Z,98642.97
2023-06-20T22:18:35.919Z,98647.28
2023-06-20T22:21:04.616Z,98641.72
2023-06-20T22:23:31.491Z,98648.97
2023-06-20T22:25:58.621Z,98647.34
2023-06-20T22:28:25.650Z,98646.84
2023-06-20T22:30:52.977Z,98649.53
2023-06-20T22:33:19.834Z,98654.09
2023-06-20T22:35:46.969Z,98653.34
2023-06-20T22:38:16.107Z,98655.16
2023-06-20T22:40:44.822Z,98655.38
2023-06-20T22:43:14.874Z,98658.13
2023-06-20T22:45:42.235Z,98655.53
2023-06-20T22:48:09.531Z,98650.75
2023-06-20T22:50:38.061Z,98657.25
2023-06-20T22:53:05.350Z,98646.78
2023-06-20T22:55:38.466Z,98651.25
2023-06-20T22:58:05.770Z,98649.56
2023-06-20T23:00:35.706Z,98636.34
2023-06-20T23:03:02.727Z,98637.97
2023-06-20T23:05:30.164Z,98633.72
2023-06-20T23:07:58.530Z,98628.97
2023-06-20T23:10:26.412Z,98623.53
2023-06-20T23:12:53.542Z,98626.69
2023-06-20T23:15:20.876Z,98622.69
2023-06-20T23:17:47.811Z,98622.41
2023-06-20T23:20:15.036Z,98621.19
2023-06-20T23:22:42.033Z,98618.66
2023-06-20T23:25:13.026Z,98612.69
2023-06-20T23:27:40.601Z,98614.38
2023-06-20T23:30:11.719Z,98615.00
2023-06-20T23:32:42.217Z,98604.00
2023-06-20T23:35:09.407Z,98600.63
2023-06-20T23:37:39.500Z,98597.16
2023-06-20T23:40:14.021Z,98602.03
2023-06-20T23:42:41.312Z,98610.47
2023-06-20T23:45:10.269Z,98617.91
2023-06-20T23:47:37.357Z,98615.69
2023-06-20T23:50:04.870Z,98617.59
2023-06-20T23:52:33.552Z,98622.22
2023-06-20T23:55:01.474Z,98616.97
2023-06-20T23:57:31.786Z,98626.63
